createdAt,value
2018-12-14T00:00:16.544Z,101934.40
2018-12-14T00:02:46.369Z,101931.28
2018-12-14T00:05:16.205Z,101933.28
2018-12-14T00:07:46.346Z,101940.28
2018-12-14T00:10:16.132Z,101934.20
2018-12-14T00:12:45.777Z,101929.06
2018-12-14T00:15:15.870Z,101933.91
2018-12-14T00:17:45.559Z,101928.73
2018-12-14T00:20:15.463Z,101928.24
2018-12-14T00:22:45.534Z,101936.33
2018-12-14T00:25:15.320Z,101930.52
2018-12-14T00:27:45.502Z,101933.77
2018-12-14T00:30:15.179Z,101939.03
2018-12-14T00:32:44.933Z,101942.48
2018-12-14T00:35:15.259Z,101943.17
2018-12-14T00:37:45.079Z,101940.52
2018-12-14T00:40:14.822Z,101941.50
2018-12-14T00:42:44.492Z,101937.86
2018-12-14T00:45:15.032Z,101941.30
2018-12-14T00:47:44.856Z,101945.34
2018-12-14T00:50:14.629Z,101945.94
2018-12-14T00:52:44.480Z,101942.28
2018-12-14T00:55:14.352Z,101938.43
2018-12-14T00:57:44.197Z,101943.48
2018-12-14T01:00:14.140Z,101941.95
2018-12-14T01:02:43.877Z,101943.19
2018-12-14T01:05:13.719Z,101941.86
2018-12-14T01:07:43.481Z,101948.97
2018-12-14T01:10:13.755Z,101951.32
2018-12-14T01:12:43.537Z,101952.02
2018-12-14T01:15:13.310Z,101959.10
2018-12-14T01:17:43.303Z,101954.61
2018-12-14T01:20:12.983Z,101951.81
2018-12-14T01:22:42.908Z,101952.09
2018-12-14T01:25:12.749Z,101956.39
2018-12-14T01:27:42.457Z,101955.87
2018-12-14T01:30:12.333Z,101960.52
2018-12-14T01:32:42.906Z,101956.80
2018-12-14T01:35:12.884Z,101957.34
2018-12-14T01:37:42.736Z,101955.83
2018-12-14T01:40:12.657Z,101960.27
2018-12-14T01:42:42.364Z,101956.33
2018-12-14T01:45:12.286Z,101960.39
2018-12-14T01:47:41.977Z,101961.72
2018-12-14T01:50:12.189Z,101964.12
2018-12-14T01:52:42.272Z,101967.12
2018-12-14T01:55:12.177Z,101961.06
2018-12-14T01:57:42.448Z,101961.42
2018-12-14T02:00:12.832Z,101958.77
2018-12-14T02:02:42.632Z,101954.77
2018-12-14T02:05:12.545Z,101952.36
2018-12-14T02:07:42.428Z,101957.20
2018-12-14T02:10:12.486Z,101950.83
2018-12-14T02:12:43.016Z,101949.52
2018-12-14T02:15:12.721Z,101947.11
2018-12-14T02:17:42.621Z,101943.84
2018-12-14T02:20:12.416Z,101943.84
2018-12-14T02:22:42.243Z,101940.20
2018-12-14T02:25:12.047Z,101942.95
2018-12-14T02:27:42.077Z,101938.19
2018-12-14T02:30:28.627Z,101936.81
2018-12-14T02:32:58.641Z,101939.73
2018-12-14T02:35:28.406Z,101941.26
2018-12-14T02:37:58.604Z,101939.95
2018-12-14T02:40:28.427Z,101937.10
2018-12-14T02:42:58.295Z,101934.89
2018-12-14T02:45:28.805Z,101935.94
2018-12-14T02:47:58.706Z,101938.14
2018-12-14T02:50:28.368Z,101931.50
2018-12-14T02:52:58.476Z,101936.33
2018-12-14T02:55:28.762Z,101925.42
2018-12-14T02:57:58.637Z,101922.69
2018-12-14T03:00:28.595Z,101928.27
2018-12-14T03:02:58.449Z,101925.42
2018-12-14T03:05:28.268Z,101932.83
2018-12-14T03:07:58.354Z,101933.20
2018-12-14T03:10:28.306Z,101927.88
2018-12-14T03:12:57.979Z,101931.63
2018-12-14T03:15:27.692Z,101926.48
2018-12-14T03:17:57.630Z,101926.56
2018-12-14T03:20:27.504Z,101921.42
2018-12-14T03:22:57.180Z,101931.61
2018-12-14T03:25:27.537Z,101935.08
2018-12-14T03:27:57.191Z,101938.45
2018-12-14T03:30:27.774Z,101936.18
2018-12-14T03:32:57.594Z,101932.98
2018-12-14T03:35:27.612Z,101931.55
2018-12-14T03:37:57.391Z,101926.77
2018-12-14T03:40:27.252Z,101926.80
2018-12-14T03:42:57.089Z,101924.16
2018-12-14T03:45:26.918Z,101923.88
2018-12-14T03:47:56.660Z,101918.91
2018-12-14T03:50:26.629Z,101915.59
2018-12-14T03:52:56.474Z,101918.53
2018-12-14T03:55:26.369Z,101916.12
2018-12-14T03:57:56.524Z,101921.05
2018-12-14T04:00:26.728Z,101926.42
2018-12-14T04:02:56.667Z,101922.05
2018-12-14T04:05:26.802Z,101929.05
2018-12-14T04:07:56.498Z,101930.44
2018-12-14T04:10:26.240Z,101928.03
2018-12-14T04:12:55.993Z,101933.36
2018-12-14T04:15:26.373Z,101937.30
2018-12-14T04:17:56.167Z,101936.93
2018-12-14T04:20:25.967Z,101937.86
2018-12-14T04:22:55.678Z,101936.45
2018-12-14T04:25:25.635Z,101934.40
2018-12-14T04:27:55.372Z,101931.35
2018-12-14T04:30:25.266Z,101929.74
2018-12-14T04:32:54.907Z,101942.40
2018-12-14T04:35:24.576Z,101934.78
2018-12-14T04:37:54.878Z,101933.13
2018-12-14T04:40:24.605Z,101938.37
2018-12-14T04:42:54.386Z,101941.55
2018-12-14T04:45:24.295Z,101946.38
2018-12-14T04:47:54.101Z,101945.70
2018-12-14T04:50:24.208Z,101948.83
2018-12-14T04:52:54.125Z,101947.09
2018-12-14T04:55:23.944Z,101938.72
2018-12-14T04:57:53.798Z,101941.42
2018-12-14T05:00:23.528Z,101931.63
2018-12-14T05:02:53.270Z,101934.98
2018-12-14T05:05:23.018Z,101932.66
2018-12-14T05:07:52.696Z,101941.66
2018-12-14T05:10:22.574Z,101941.16
2018-12-14T05:12:56.099Z,101938.13
2018-12-14T05:15:24.221Z,101941.37
2018-12-14T05:17:54.032Z,101943.39
2018-12-14T05:20:23.763Z,101942.48
2018-12-14T05:22:53.408Z,101944.33
2018-12-14T05:25:23.252Z,101944.63
2018-12-14T05:27:53.127Z,101950.78
2018-12-14T05:30:23.324Z,101949.34
2018-12-14T05:32:53.045Z,101949.95
2018-12-14T05:35:22.928Z,101944.69
2018-12-14T05:37:53.419Z,101944.95
2018-12-14T05:40:23.260Z,101945.91
2018-12-14T05:42:52.960Z,101945.87
2018-12-14T05:45:22.655Z,101940.25
2018-12-14T05:47:52.472Z,101936.30
2018-12-14T05:50:22.300Z,101941.76
2018-12-14T05:52:52.254Z,101949.66
2018-12-14T05:55:22.117Z,101952.17
2018-12-14T05:57:52.686Z,101950.15
2018-12-14T06:00:22.370Z,101948.14
2018-12-14T06:02:52.203Z,101951.46
2018-12-14T06:05:22.177Z,101954.80
2018-12-14T06:07:52.120Z,101954.01
2018-12-14T06:10:21.904Z,101964.73
2018-12-14T06:12:51.946Z,101963.99
2018-12-14T06:15:22.364Z,101966.13
2018-12-14T06:17:52.102Z,101972.87
2018-12-14T06:20:22.079Z,101966.53
2018-12-14T06:22:51.941Z,101974.22
2018-12-14T06:25:21.669Z,101977.25
2018-12-14T06:27:51.562Z,101976.34
2018-12-14T06:30:21.256Z,101982.39
2018-12-14T06:32:51.014Z,101978.24
2018-12-14T06:35:20.691Z,101980.39
2018-12-14T06:37:50.449Z,101977.05
2018-12-14T06:40:20.228Z,101982.73
2018-12-14T06:42:50.020Z,101989.71
2018-12-14T06:45:19.904Z,101992.55
2018-12-14T06:47:49.629Z,101993.30
2018-12-14T06:50:19.357Z,101996.20
2018-12-14T06:52:50.297Z,101995.44
2018-12-14T06:55:19.938Z,101997.38
2018-12-14T06:57:49.740Z,102006.93
2018-12-14T07:00:19.433Z,102006.58
2018-12-14T07:02:49.308Z,102014.06
2018-12-14T07:05:19.141Z,102016.47
2018-12-14T07:07:49.044Z,102019.48
2018-12-14T07:10:18.958Z,102020.14
2018-12-14T07:12:48.630Z,102018.48
2018-12-14T07:15:18.490Z,102017.71
2018-12-14T07:17:48.528Z,102025.94
2018-12-14T07:20:18.266Z,102021.60
2018-12-14T07:22:47.977Z,102027.78
2018-12-14T07:25:17.797Z,102029.41
2018-12-14T07:27:47.675Z,102025.45
2018-12-14T07:30:18.511Z,102033.57
2018-12-14T07:32:48.471Z,102040.34
2018-12-14T07:38:07.311Z,102051.88
2018-12-14T07:40:37.028Z,102045.40
2018-12-14T07:43:06.718Z,102043.80
2018-12-14T07:45:36.571Z,102041.16
2018-12-14T07:48:06.450Z,102043.31
2018-12-14T07:50:36.146Z,102050.37
2018-12-14T07:53:09.186Z,102056.33
2018-12-14T07:55:38.115Z,102060.30
2018-12-14T07:58:07.854Z,102062.00
2018-12-14T08:00:37.528Z,102063.25
2018-12-14T08:03:07.192Z,102069.41
2018-12-14T08:05:36.858Z,102063.02
2018-12-14T08:08:07.246Z,102069.07
2018-12-14T08:10:37.172Z,102073.44
2018-12-14T08:13:07.020Z,102067.61
2018-12-14T08:15:36.824Z,102074.55
2018-12-14T08:18:06.674Z,102075.60
2018-12-14T08:20:36.321Z,102068.10
2018-12-14T08:23:06.104Z,102076.83
2018-12-14T08:25:35.879Z,102072.77
2018-12-14T08:28:07.836Z,102074.20
2018-12-14T08:30:37.526Z,102082.23
2018-12-14T08:33:09.863Z,102085.69
2018-12-14T08:35:39.557Z,102089.20
2018-12-14T08:38:09.455Z,102088.91
2018-12-14T08:40:39.218Z,102090.64
2018-12-14T08:43:09.076Z,102093.59
2018-12-14T08:45:38.885Z,102093.11
2018-12-14T08:48:09.245Z,102094.16
2018-12-14T08:50:39.082Z,102097.41
2018-12-14T08:53:09.547Z,102098.80
2018-12-14T08:55:39.146Z,102096.93
2018-12-14T08:58:08.880Z,102098.52
2018-12-14T09:00:38.750Z,102102.45
2018-12-14T09:03:08.581Z,102105.09
2018-12-14T09:05:38.370Z,102108.01
2018-12-14T09:08:08.098Z,102113.19
2018-12-14T09:10:37.948Z,102120.37
2018-12-14T09:13:07.547Z,102117.83
2018-12-14T09:15:37.355Z,102127.44
2018-12-14T09:18:08.383Z,102131.05
2018-12-14T09:20:38.177Z,102128.73
2018-12-14T09:23:08.043Z,102130.05
2018-12-14T09:25:37.903Z,102129.96
2018-12-14T09:28:07.818Z,102130.69
2018-12-14T09:30:42.603Z,102124.34
2018-12-14T09:33:09.537Z,102129.27
2018-12-14T09:35:39.381Z,102128.48
2018-12-14T09:38:09.170Z,102134.28
2018-12-14T09:40:38.899Z,102134.09
2018-12-14T09:43:08.722Z,102135.16
2018-12-14T09:45:38.484Z,102128.83
2018-12-14T09:48:08.202Z,102129.92
2018-12-14T09:50:37.937Z,102133.80
2018-12-14T09:53:07.923Z,102135.92
2018-12-14T09:55:37.817Z,102134.11
2018-12-14T09:58:09.786Z,102134.43
2018-12-14T10:00:39.543Z,102129.38
2018-12-14T10:03:09.828Z,102134.43
2018-12-14T10:05:39.811Z,102137.63
2018-12-14T10:08:09.812Z,102131.00
2018-12-14T10:10:39.832Z,102126.22
2018-12-14T10:13:10.570Z,102130.48
2018-12-14T10:15:40.645Z,102123.79
2018-12-14T10:18:10.408Z,102131.20
2018-12-14T10:20:40.195Z,102128.75
2018-12-14T10:23:10.073Z,102127.03
2018-12-14T10:25:39.749Z,102126.02
2018-12-14T10:28:09.971Z,102117.16
2018-12-14T10:30:39.926Z,102125.66
2018-12-14T10:33:09.718Z,102119.09
2018-12-14T10:35:39.712Z,102115.16
2018-12-14T10:38:09.704Z,102114.53
2018-12-14T10:40:39.544Z,102111.41
2018-12-14T10:43:09.303Z,102103.39
2018-12-14T10:45:39.633Z,102102.91
2018-12-14T10:48:09.296Z,102095.34
2018-12-14T10:50:39.922Z,102099.38
2018-12-14T10:53:12.256Z,102101.43
2018-12-14T10:55:42.576Z,102099.78
2018-12-14T10:58:12.496Z,102095.14
2018-12-14T11:00:47.537Z,102088.65
2018-12-14T11:03:17.173Z,102096.34
2018-12-14T11:05:47.585Z,102089.14
2018-12-14T11:08:18.427Z,102088.44
2018-12-14T11:10:48.783Z,102082.69
2018-12-14T11:13:18.550Z,102086.13
2018-12-14T11:15:48.663Z,102083.10
2018-12-14T11:18:18.358Z,102081.80
2018-12-14T11:20:48.329Z,102089.60
2018-12-14T11:23:18.108Z,102083.92
2018-12-14T11:25:48.071Z,102086.64
2018-12-14T11:28:17.875Z,102088.48
2018-12-14T11:30:47.864Z,102086.67
2018-12-14T11:33:17.632Z,102082.70
2018-12-14T11:35:47.620Z,102086.55
2018-12-14T11:38:17.413Z,102084.42
2018-12-14T11:40:47.142Z,102087.78
2018-12-14T11:43:16.893Z,102082.81
2018-12-14T11:45:46.729Z,102082.81
2018-12-14T11:48:16.577Z,102084.42
2018-12-14T11:50:46.601Z,102083.11
2018-12-14T11:53:20.358Z,102083.43
2018-12-14T11:55:51.253Z,102088.08
2018-12-14T11:58:21.084Z,102083.22
2018-12-14T12:00:51.042Z,102086.06
2018-12-14T12:03:20.829Z,102077.44
2018-12-14T12:05:50.660Z,102083.80
2018-12-14T12:08:20.712Z,102077.14
2018-12-14T12:10:50.560Z,102086.64
2018-12-14T12:13:20.313Z,102080.47
2018-12-14T12:15:50.525Z,102079.77
2018-12-14T12:18:20.496Z,102074.30
2018-12-14T12:20:50.516Z,102082.81
2018-12-14T12:23:20.693Z,102081.20
2018-12-14T12:25:50.592Z,102080.91
2018-12-14T12:28:21.017Z,102087.78
2018-12-14T12:30:50.837Z,102078.58
2018-12-14T12:33:20.597Z,102080.68
2018-12-14T12:35:51.044Z,102088.08
2018-12-14T12:38:21.026Z,102080.09
2018-12-14T12:40:50.808Z,102085.65
2018-12-14T12:43:21.416Z,102089.59
2018-12-14T12:45:51.135Z,102092.35
2018-12-14T12:48:21.047Z,102092.44
2018-12-14T12:50:50.989Z,102084.95
2018-12-14T12:53:20.830Z,102085.16
2018-12-14T12:55:50.885Z,102084.75
2018-12-14T12:58:20.618Z,102085.03
2018-12-14T13:00:50.674Z,102087.13
2018-12-14T13:03:20.458Z,102080.59
2018-12-14T13:05:50.477Z,102086.76
2018-12-14T13:08:20.380Z,102086.06
2018-12-14T13:10:50.201Z,102086.76
2018-12-14T13:13:20.012Z,102087.25
2018-12-14T13:15:49.911Z,102083.92
2018-12-14T13:18:19.642Z,102088.28
2018-12-14T13:20:49.532Z,102089.80
2018-12-14T13:23:19.359Z,102091.73
2018-12-14T13:25:49.461Z,102096.50
2018-12-14T13:28:19.556Z,102093.05
2018-12-14T13:30:49.832Z,102095.39
2018-12-14T13:33:19.697Z,102097.00
2018-12-14T13:35:49.528Z,102099.10
2018-12-14T13:38:19.419Z,102099.62
2018-12-14T13:40:50.037Z,102096.47
2018-12-14T13:43:20.032Z,102102.26
2018-12-14T13:45:49.999Z,102098.28
2018-12-14T13:48:20.018Z,102105.80
2018-12-14T13:50:49.781Z,102106.91
2018-12-14T13:53:19.827Z,102111.23
2018-12-14T13:55:50.029Z,102109.54
2018-12-14T13:58:20.408Z,102112.95
2018-12-14T14:00:50.986Z,102116.32
2018-12-14T14:03:20.852Z,102117.59
2018-12-14T14:05:51.006Z,102124.30
2018-12-14T14:08:20.812Z,102131.78
2018-12-14T14:10:50.786Z,102131.78
2018-12-14T14:13:21.077Z,102143.14
2018-12-14T14:15:51.175Z,102143.84
2018-12-14T14:18:21.002Z,102140.91
2018-12-14T14:20:51.027Z,102145.34
2018-12-14T14:23:20.798Z,102150.32
2018-12-14T14:25:51.483Z,102149.51
2018-12-14T14:28:21.841Z,102153.03
2018-12-14T14:30:51.723Z,102156.56
2018-12-14T14:33:21.502Z,102155.85
2018-12-14T14:35:51.413Z,102157.86
2018-12-14T14:38:21.232Z,102151.52
2018-12-14T14:40:52.076Z,102155.26
2018-12-14T14:43:22.077Z,102159.82
2018-12-14T14:45:52.214Z,102162.45
2018-12-14T14:48:22.192Z,102166.70
2018-12-14T14:50:51.906Z,102165.92
2018-12-14T14:53:21.804Z,102156.78
2018-12-14T14:55:51.563Z,102168.59
2018-12-14T14:58:21.360Z,102175.73
2018-12-14T15:00:51.086Z,102177.39
2018-12-14T15:03:21.257Z,102178.10
2018-12-14T15:05:51.084Z,102180.04
2018-12-14T15:08:21.081Z,102174.70
2018-12-14T15:10:50.974Z,102178.94
2018-12-14T15:13:20.796Z,102177.19
2018-12-14T15:15:50.864Z,102184.60
2018-12-14T15:18:21.087Z,102183.92
2018-12-14T15:20:51.428Z,102183.16
2018-12-14T15:23:21.401Z,102187.05
2018-12-14T15:25:53.391Z,102187.23
2018-12-14T15:28:23.860Z,102190.34
2018-12-14T15:30:53.747Z,102193.27
2018-12-14T15:33:24.101Z,102196.86
2018-12-14T15:35:54.028Z,102195.83
2018-12-14T15:38:23.825Z,102202.22
2018-12-14T15:40:54.147Z,102211.75
2018-12-14T15:43:24.550Z,102209.05
2018-12-14T15:45:54.728Z,102204.94
2018-12-14T15:48:24.796Z,102206.67
2018-12-14T15:50:54.673Z,102207.27
2018-12-14T15:53:24.480Z,102208.06
2018-12-14T15:55:54.346Z,102210.97
2018-12-14T15:58:24.086Z,102211.01
2018-12-14T16:00:53.968Z,102210.22
2018-12-14T16:03:24.174Z,102210.91
2018-12-14T16:05:54.594Z,102209.20
2018-12-14T16:08:24.539Z,102209.11
2018-12-14T16:10:55.554Z,102209.87
2018-12-14T16:13:25.520Z,102213.27
2018-12-14T16:15:55.444Z,102209.37
2018-12-14T16:18:25.587Z,102208.23
2018-12-14T16:20:55.362Z,102212.52
2018-12-14T16:23:25.346Z,102216.86
2018-12-14T16:25:55.084Z,102213.00
2018-12-14T16:28:25.139Z,102218.09
2018-12-14T16:30:55.190Z,102219.32
2018-12-14T16:33:25.140Z,102215.55
2018-12-14T16:35:54.853Z,102218.53
2018-12-14T16:38:24.767Z,102217.20
2018-12-14T16:40:54.743Z,102218.62
2018-12-14T16:43:24.630Z,102218.31
2018-12-14T16:45:54.506Z,102218.52
2018-12-14T16:48:24.658Z,102223.16
2018-12-14T16:50:54.462Z,102221.84
2018-12-14T16:53:24.641Z,102223.43
2018-12-14T16:55:54.577Z,102229.41
2018-12-14T16:58:24.563Z,102229.31
2018-12-14T17:00:55.081Z,102234.59
2018-12-14T17:03:24.956Z,102231.14
2018-12-14T17:05:54.981Z,102235.62
2018-12-14T17:08:24.773Z,102239.31
2018-12-14T17:10:54.536Z,102243.09
2018-12-14T17:13:24.302Z,102239.31
2018-12-14T17:15:54.123Z,102240.60
2018-12-14T17:18:23.976Z,102239.93
2018-12-14T17:20:54.645Z,102245.20
2018-12-14T17:23:24.406Z,102246.48
2018-12-14T17:25:54.295Z,102248.67
2018-12-14T17:28:24.482Z,102246.73
2018-12-14T17:30:54.505Z,102248.17
2018-12-14T17:33:24.296Z,102256.73
2018-12-14T17:35:55.208Z,102262.50
2018-12-14T17:38:25.320Z,102270.98
2018-12-14T17:40:55.307Z,102269.77
2018-12-14T17:43:25.444Z,102274.31
2018-12-14T17:45:55.256Z,102274.53
2018-12-14T17:48:25.472Z,102277.16
2018-12-14T17:50:55.237Z,102276.25
2018-12-14T17:53:24.999Z,102281.31
2018-12-14T17:55:54.867Z,102275.09
2018-12-14T17:58:25.009Z,102283.74
2018-12-14T18:00:58.463Z,102280.62
2018-12-14T18:03:27.048Z,102286.73
2018-12-14T18:05:56.778Z,102278.51
2018-12-14T18:08:26.561Z,102280.67
2018-12-14T18:10:56.424Z,102279.50
2018-12-14T18:13:26.317Z,102284.09
2018-12-14T18:15:56.553Z,102281.77
2018-12-14T18:18:26.239Z,102289.62
2018-12-14T18:20:55.976Z,102288.63
2018-12-14T18:23:25.599Z,102289.92
2018-12-14T18:25:55.511Z,102290.38
2018-12-14T18:28:25.176Z,102290.90
2018-12-14T18:30:54.897Z,102292.28
2018-12-14T18:33:24.546Z,102295.41
2018-12-14T18:35:54.289Z,102290.90
2018-12-14T18:38:24.625Z,102297.91
2018-12-14T18:40:54.772Z,102303.66
2018-12-14T18:43:24.755Z,102301.92
2018-12-14T18:45:54.623Z,102304.26
2018-12-14T18:48:24.424Z,102302.44
2018-12-14T18:50:54.560Z,102302.31
2018-12-14T18:53:24.366Z,102304.43
2018-12-14T18:55:54.176Z,102302.36
2018-12-14T18:58:24.116Z,102311.86
2018-12-14T19:00:54.142Z,102311.44
2018-12-14T19:03:23.902Z,102315.38
2018-12-14T19:05:53.731Z,102313.08
2018-12-14T19:08:23.989Z,102322.16
2018-12-14T19:10:54.402Z,102321.79
2018-12-14T19:13:24.429Z,102324.91
2018-12-14T19:15:59.666Z,102330.08
2018-12-14T19:18:26.216Z,102328.92
2018-12-14T19:20:56.338Z,102334.65
2018-12-14T19:23:26.437Z,102335.77
2018-12-14T19:25:56.347Z,102337.97
2018-12-14T19:28:26.090Z,102343.73
2018-12-14T19:30:56.379Z,102348.46
2018-12-14T19:33:26.168Z,102354.61
2018-12-14T19:35:56.420Z,102357.80
2018-12-14T19:38:26.273Z,102357.21
2018-12-14T19:40:56.040Z,102353.10
2018-12-14T19:43:25.970Z,102346.03
2018-12-14T19:45:55.881Z,102342.18
2018-12-14T19:48:25.587Z,102345.60
2018-12-14T19:50:55.383Z,102342.54
2018-12-14T19:53:25.437Z,102347.15
2018-12-14T19:55:55.336Z,102353.59
2018-12-14T19:58:25.367Z,102351.95
2018-12-14T20:00:55.374Z,102336.62
2018-12-14T20:03:25.193Z,102348.50
2018-12-14T20:05:55.143Z,102338.63
2018-12-14T20:08:25.131Z,102342.28
2018-12-14T20:10:54.961Z,102343.37
2018-12-14T20:13:24.710Z,102343.62
2018-12-14T20:15:57.393Z,102350.59
2018-12-14T20:18:26.572Z,102341.98
2018-12-14T20:20:57.168Z,102349.78
2018-12-14T20:23:27.243Z,102339.81
2018-12-14T20:25:56.958Z,102341.69
2018-12-14T20:28:28.106Z,102338.13
2018-12-14T20:30:57.955Z,102347.84
2018-12-14T20:33:27.665Z,102340.56
2018-12-14T20:35:58.296Z,102335.87
2018-12-14T20:38:28.015Z,102339.39
2018-12-14T20:40:58.304Z,102333.50
2018-12-14T20:43:28.262Z,102331.27
2018-12-14T20:45:58.153Z,102332.19
2018-12-14T20:48:28.146Z,102337.70
2018-12-14T20:50:58.055Z,102325.18
2018-12-14T20:53:27.822Z,102332.88
2018-12-14T20:55:57.769Z,102335.89
2018-12-14T20:58:27.597Z,102333.99
2018-12-14T21:00:57.545Z,102336.52
2018-12-14T21:03:27.395Z,102334.16
2018-12-14T21:05:57.212Z,102335.73
2018-12-14T21:08:26.998Z,102340.30
2018-12-14T21:10:58.156Z,102341.18
2018-12-14T21:13:28.062Z,102341.67
2018-12-14T21:15:58.005Z,102340.30
2018-12-14T21:18:28.001Z,102338.36
2018-12-14T21:20:57.924Z,102333.03
2018-12-14T21:23:27.862Z,102342.83
2018-12-14T21:25:57.728Z,102336.25
2018-12-14T21:28:27.559Z,102340.98
2018-12-14T21:30:57.291Z,102329.73
2018-12-14T21:33:27.151Z,102337.44
2018-12-14T21:35:57.336Z,102332.86
2018-12-14T21:38:28.073Z,102333.55
2018-12-14T21:40:58.453Z,102333.55
2018-12-14T21:43:28.859Z,102328.46
2018-12-14T21:45:58.612Z,102331.87
2018-12-14T21:48:28.546Z,102328.39
2018-12-14T21:50:58.625Z,102329.02
2018-12-14T21:53:28.810Z,102322.80
2018-12-14T21:55:58.843Z,102321.19
2018-12-14T21:58:29.086Z,102318.13
2018-12-14T22:00:59.092Z,102316.94
2018-12-14T22:03:28.948Z,102317.11
2018-12-14T22:05:58.962Z,102312.61
2018-12-14T22:08:29.392Z,102311.48
2018-12-14T22:10:59.225Z,102315.23
2018-12-14T22:13:28.929Z,102319.38
2018-12-14T22:15:58.761Z,102315.00
2018-12-14T22:18:28.586Z,102315.30
2018-12-14T22:20:58.711Z,102308.80
2018-12-14T22:23:28.777Z,102309.42
2018-12-14T22:25:58.677Z,102315.73
2018-12-14T22:28:30.074Z,102314.22
2018-12-14T22:31:00.123Z,102316.98
2018-12-14T22:33:30.609Z,102314.87
2018-12-14T22:36:00.435Z,102314.95
2018-12-14T22:38:30.133Z,102314.63
2018-12-14T22:41:00.564Z,102321.77
2018-12-14T22:43:30.443Z,102314.74
2018-12-14T22:46:00.184Z,102315.39
2018-12-14T22:48:30.704Z,102325.13
2018-12-14T22:51:00.539Z,102328.64
2018-12-14T22:53:30.497Z,102326.59
2018-12-14T22:56:00.252Z,102324.25
2018-12-14T22:58:29.949Z,102329.66
2018-12-14T23:01:00.002Z,102328.70
2018-12-14T23:03:30.715Z,102329.61
2018-12-14T23:06:00.421Z,102335.23
2018-12-14T23:08:30.156Z,102340.17
2018-12-14T23:10:59.951Z,102340.97
2018-12-14T23:13:29.836Z,102344.67
2018-12-14T23:15:59.609Z,102342.67
2018-12-14T23:18:29.965Z,102345.98
2018-12-14T23:20:59.724Z,102342.86
2018-12-14T23:23:29.616Z,102345.53
2018-12-14T23:25:59.530Z,102346.61
2018-12-14T23:28:29.353Z,102342.86
2018-12-14T23:30:59.077Z,102340.30
2018-12-14T23:33:28.877Z,102348.13
2018-12-14T23:35:59.105Z,102344.61
2018-12-14T23:38:29.200Z,102349.09
2018-12-14T23:40:59.045Z,102345.44
2018-12-14T23:43:28.742Z,102349.87
2018-12-14T23:45:58.591Z,102346.94
2018-12-14T23:48:28.493Z,102355.81
2018-12-14T23:50:58.264Z,102353.81
2018-12-14T23:53:28.193Z,102360.00
2018-12-14T23:55:57.909Z,102355.43
2018-12-14T23:58:27.969Z,102357.62
